Time;durP1;ratioP1;P1;durP2;ratioP2;P2;SDS_P1;SDS_P2;PMS_P1;PMS_P2;Temp;Humidity;BMP_temperature;BMP_pressure;BME280_temperature;BME280_humidity;BME280_pressure;Samples;Min_cycle;Max_cycle;Signal;HPM_P1;HPM_P2
2023/05/01 00:01:25;;;;;;;6.50;6.00;;;;;;;-145.94;50.08;77389.69;5094024;28;20186;-67
2023/05/01 00:03:53;;;;;;;6.57;6.13;;;;;;;-145.94;50.23;77395.81;5094527;28;20182;-67
2023/05/01 00:06:20;;;;;;;5.83;5.53;;;;;;;-145.94;50.32;77397.84;5093888;28;20202;-67
2023/05/01 00:08:46;;;;;;;6.03;5.83;;;;;;;-145.94;50.40;77399.91;5093879;28;20189;-67
2023/05/01 00:11:13;;;;;;;9.87;6.00;;;;;;;-145.94;50.33;77389.69;5094447;28;20192;-67
2023/05/01 00:13:39;;;;;;;7.70;5.47;;;;;;;-145.94;50.33;77401.94;5094048;28;20206;-67
2023/05/01 00:16:10;;;;;;;6.63;6.23;;;;;;;-145.94;50.48;77395.81;5094318;28;20292;-67
2023/05/01 00:18:37;;;;;;;6.00;5.70;;;;;;;-145.94;50.35;77406.00;5093765;28;20186;-67
2023/05/01 00:21:03;;;;;;;5.63;5.23;;;;;;;-145.94;50.60;77403.97;5093687;28;20182;-67
2023/05/01 00:23:30;;;;;;;6.50;6.10;;;;;;;-145.94;50.68;77406.00;5094776;28;20593;-67
2023/05/01 00:25:56;;;;;;;6.63;6.33;;;;;;;-145.94;50.79;77403.97;5093743;28;20217;-67
2023/05/01 00:28:22;;;;;;;5.87;5.60;;;;;;;-145.94;50.77;77412.13;5093787;28;20194;-67
2023/05/01 00:30:49;;;;;;;6.23;5.87;;;;;;;-145.94;51.06;77420.28;5093914;28;20537;-67
2023/05/01 00:33:15;;;;;;;6.33;5.70;;;;;;;-145.94;51.19;77420.28;5093525;28;20237;-67
2023/05/01 00:35:45;;;;;;;6.20;5.83;;;;;;;-145.94;51.25;77420.28;5092845;28;20579;-67
2023/05/01 00:38:12;;;;;;;5.50;5.30;;;;;;;-145.94;51.66;77424.38;5094275;28;20704;-67
2023/05/01 00:40:43;;;;;;;6.67;6.17;;;;;;;-145.94;51.55;77422.34;5093475;28;20201;-67
2023/05/01 00:43:11;;;;;;;6.03;5.67;;;;;;;-145.94;51.54;77428.44;5075483;28;20182;-67
2023/05/01 00:45:39;;;;;;;7.93;5.77;;;;;;;-145.94;51.77;77430.50;5093562;28;20205;-67
2023/05/01 00:48:06;;;;;;;5.67;5.37;;;;;;;-145.94;51.87;77434.56;5093961;28;20648;-68
2023/05/01 00:50:33;;;;;;;6.87;6.33;;;;;;;-145.94;52.47;77446.81;5092749;28;20555;-68
2023/05/01 00:52:59;;;;;;;9.33;5.67;;;;;;;-145.94;52.27;77446.81;5075185;28;20221;-68
2023/05/01 00:55:25;;;;;;;6.23;5.90;;;;;;;-145.94;52.52;77446.81;5093463;28;20747;-67
2023/05/01 00:57:54;;;;;;;6.17;5.97;;;;;;;-145.94;51.97;77442.72;5093290;28;20220;-67
2023/05/01 01:00:23;;;;;;;6.63;6.13;;;;;;;-145.94;52.50;77442.72;5093499;28;20174;-67
2023/05/01 01:02:50;;;;;;;7.10;6.40;;;;;;;-145.94;52.48;77442.72;5075192;28;20610;-67
2023/05/01 01:05:20;;;;;;;6.33;5.83;;;;;;;-145.94;52.27;77440.69;5093108;28;20194;-67
2023/05/01 01:07:53;;;;;;;6.20;5.83;;;;;;;-145.94;52.62;77452.91;5075120;28;20222;-67
2023/05/01 01:10:57;;;;;;;6.27;5.97;;;;;;;-145.94;52.31;77446.81;5093210;28;20232;-67
2023/05/01 01:13:28;;;;;;;7.23;6.57;;;;;;;-145.94;52.18;77442.72;5093368;28;20243;-67
2023/05/01 01:16:02;;;;;;;6.43;6.10;;;;;;;-145.94;52.55;77459.03;5093379;28;20236;-67
2023/05/01 01:18:55;;;;;;;6.50;6.37;;;;;;;-145.94;52.66;77459.03;5093394;28;20231;-67
2023/05/01 01:21:37;;;;;;;7.17;6.47;;;;;;;-145.94;52.37;77465.16;5090365;28;20202;-67
2023/05/01 01:24:34;;;;;;;7.07;6.57;;;;;;;-145.94;52.47;77465.16;5093063;28;20204;-67
2023/05/01 01:27:28;;;;;;;5.93;5.83;;;;;;;-145.94;53.18;77473.31;5093042;28;20259;-67
2023/05/01 01:30:43;;;;;;;9.00;6.63;;;;;;;-145.94;53.04;77481.47;5091753;28;20276;-67
2023/05/01 01:33:27;;;;;;;6.13;5.93;;;;;;;-145.94;53.25;77477.41;5038525;28;20610;-67
2023/05/01 01:35:56;;;;;;;7.00;6.77;;;;;;;-145.94;52.83;77465.16;5074987;28;20209;-67
2023/05/01 01:38:39;;;;;;;5.77;5.60;;;;;;;-145.94;53.23;77465.16;5091652;28;20248;-67
2023/05/01 01:41:12;;;;;;;5.83;5.63;;;;;;;-145.94;52.99;77465.16;5074815;28;20636;-67
2023/05/01 01:43:46;;;;;;;6.63;6.03;;;;;;;-145.94;53.18;77469.25;5093181;28;20198;-67
2023/05/01 01:46:16;;;;;;;5.80;5.60;;;;;;;-145.94;53.36;77463.13;5094503;28;20627;-67
2023/05/01 01:48:47;;;;;;;6.27;5.90;;;;;;;-145.94;53.26;77475.34;5078520;28;20186;-67
2023/05/01 01:51:18;;;;;;;6.23;6.03;;;;;;;-145.94;53.21;77461.09;5096626;28;20240;-67
2023/05/01 01:53:50;;;;;;;6.57;6.37;;;;;;;-145.94;53.28;77459.03;5096784;28;20194;-67
2023/05/01 01:56:20;;;;;;;6.33;5.93;;;;;;;-145.94;52.89;77444.75;5078385;28;20308;-67
2023/05/01 01:58:51;;;;;;;6.90;6.60;;;;;;;-145.94;52.83;77434.56;5078202;28;20259;-67
2023/05/01 02:01:19;;;;;;;6.40;6.20;;;;;;;-145.94;52.93;77444.75;5078246;28;20599;-67
2023/05/01 02:03:47;;;;;;;6.37;5.97;;;;;;;-145.94;53.10;77438.66;5078128;28;20189;-67
2023/05/01 02:06:16;;;;;;;8.53;5.97;;;;;;;-145.94;53.21;77436.59;5078050;28;20217;-67
2023/05/01 02:08:45;;;;;;;6.60;6.27;;;;;;;-145.94;53.21;77424.38;5078070;28;20194;-67
2023/05/01 02:11:14;;;;;;;6.53;6.20;;;;;;;-145.94;53.33;77424.38;5078263;28;20197;-67
2023/05/01 02:13:42;;;;;;;6.97;6.40;;;;;;;-145.94;53.29;77420.28;5077906;28;20293;-67
2023/05/01 02:16:10;;;;;;;7.60;7.00;;;;;;;-145.94;53.07;77420.28;5077846;28;20229;-67
2023/05/01 02:18:37;;;;;;;6.40;6.00;;;;;;;-145.94;52.99;77410.09;5078007;28;20209;-67
2023/05/01 02:21:04;;;;;;;6.27;6.07;;;;;;;-145.94;52.90;77412.13;5096007;28;20712;-67
2023/05/01 02:23:35;;;;;;;6.20;5.90;;;;;;;-145.94;52.70;77410.09;5077830;28;20179;-67
2023/05/01 02:26:03;;;;;;;6.53;5.50;;;;;;;-145.94;52.70;77410.09;5096430;28;20676;-67
2023/05/01 02:28:31;;;;;;;6.90;6.37;;;;;;;-145.94;52.46;77408.06;5095713;28;20255;-67
2023/05/01 02:30:57;;;;;;;6.33;6.03;;;;;;;-145.94;52.53;77410.09;5095817;28;20247;-67
2023/05/01 02:33:26;;;;;;;7.30;6.60;;;;;;;-145.94;52.63;77399.91;5095702;28;20198;-69
2023/05/01 02:35:52;;;;;;;6.90;6.60;;;;;;;-145.94;52.78;77397.84;5077569;28;20217;-68
2023/05/01 02:38:19;;;;;;;7.53;6.97;;;;;;;-145.94;52.77;77401.94;5095894;28;20670;-68
2023/05/01 02:40:50;;;;;;;7.33;6.83;;;;;;;-145.94;52.66;77397.84;5095693;28;20182;-69
2023/05/01 02:43:19;;;;;;;7.20;6.60;;;;;;;-145.94;52.74;77395.81;5095647;28;20198;-69
2023/05/01 02:45:48;;;;;;;9.47;5.93;;;;;;;-145.94;52.83;77387.66;5094217;28;20210;-68
2023/05/01 02:48:20;;;;;;;6.20;5.97;;;;;;;-145.94;53.14;77395.81;5077378;28;20235;-68
2023/05/01 02:50:48;;;;;;;6.50;6.40;;;;;;;-145.94;53.50;77395.81;5077305;28;20186;-68
2023/05/01 02:53:15;;;;;;;6.73;6.23;;;;;;;-145.94;53.09;77387.66;5095766;28;20205;-68
2023/05/01 02:55:48;;;;;;;6.70;6.30;;;;;;;-145.94;53.26;77383.59;5077114;28;20227;-68
2023/05/01 02:58:18;;;;;;;7.47;7.07;;;;;;;-145.94;53.30;77389.69;5076508;28;20197;-68
2023/05/01 03:00:47;;;;;;;6.17;5.77;;;;;;;-145.94;53.11;77385.63;5077148;28;20231;-68
2023/05/01 03:03:14;;;;;;;6.77;6.37;;;;;;;-145.94;53.32;77385.63;5077051;28;20186;-68
2023/05/01 03:05:41;;;;;;;7.47;7.07;;;;;;;-145.94;52.94;77365.22;5076924;28;20297;-68
2023/05/01 03:08:08;;;;;;;8.17;7.13;;;;;;;-145.94;53.38;77385.63;5093787;28;20614;-68
2023/05/01 03:10:35;;;;;;;6.43;6.23;;;;;;;-145.94;53.17;77377.47;5076901;28;20668;-68
2023/05/01 03:13:02;;;;;;;7.27;6.97;;;;;;;-145.94;53.08;77367.25;5094918;28;20237;-68
2023/05/01 03:15:28;;;;;;;7.50;6.50;;;;;;;-145.94;53.15;77363.19;5095093;28;20723;-68
2023/05/01 03:17:55;;;;;;;6.37;6.10;;;;;;;-145.94;52.95;77369.31;5094874;28;20224;-68
2023/05/01 03:20:21;;;;;;;6.07;5.80;;;;;;;-145.94;53.36;77363.19;5095051;28;20188;-69
2023/05/01 03:22:48;;;;;;;7.27;6.87;;;;;;;-145.94;53.12;77359.09;5076634;28;20289;-69
2023/05/01 03:25:14;;;;;;;6.33;5.93;;;;;;;-145.94;53.18;77369.31;5076611;28;20606;-68
2023/05/01 03:27:41;;;;;;;7.20;6.77;;;;;;;-145.94;53.18;77357.06;5076405;28;20251;-68
2023/05/01 03:30:09;;;;;;;7.37;6.80;;;;;;;-145.94;53.49;77361.16;5076544;28;20200;-68
2023/05/01 03:32:38;;;;;;;6.50;6.10;;;;;;;-145.94;53.41;77361.16;5076366;28;20220;-68
2023/05/01 03:35:09;;;;;;;7.03;6.83;;;;;;;-145.94;53.39;77357.06;5076653;28;20190;-67
2023/05/01 03:37:36;;;;;;;6.13;5.73;;;;;;;-145.94;53.44;77359.09;5076396;28;20285;-67
2023/05/01 03:40:03;;;;;;;7.20;6.67;;;;;;;-145.94;53.41;77353.00;5076418;28;20197;-69
2023/05/01 03:42:48;;;;;;;6.60;6.17;;;;;;;-145.94;53.43;77350.94;5094619;28;20185;-68
2023/05/01 03:45:19;;;;;;;7.57;7.07;;;;;;;-145.94;53.30;77344.84;5077026;28;20272;-68
2023/05/01 03:47:45;;;;;;;8.73;8.07;;;;;;;-145.94;53.42;77350.94;5093091;28;20217;-69
2023/05/01 03:50:13;;;;;;;7.57;7.23;;;;;;;-145.94;53.44;77348.91;5076246;28;20629;-69
2023/05/01 03:52:42;;;;;;;7.10;6.80;;;;;;;-145.94;53.29;77342.78;5075982;28;20208;-68
2023/05/01 03:55:09;;;;;;;8.77;7.43;;;;;;;-145.94;53.11;77346.88;5075999;28;20190;-68
2023/05/01 03:57:45;;;;;;;9.37;6.73;;;;;;;-145.94;53.43;77355.03;5076000;28;20181;-68
2023/05/01 04:00:12;;;;;;;7.53;7.00;;;;;;;-145.94;53.68;77359.09;5094721;28;20202;-68
2023/05/01 04:02:42;;;;;;;7.20;6.90;;;;;;;-145.94;53.55;77359.09;5075920;28;20255;-68
2023/05/01 04:05:13;;;;;;;6.73;6.37;;;;;;;-145.94;53.70;77361.16;5076693;28;20186;-67
2023/05/01 04:07:45;;;;;;;7.00;6.60;;;;;;;-145.94;53.73;77361.16;5076446;28;20186;-67
2023/05/01 04:10:11;;;;;;;7.00;6.70;;;;;;;-145.94;53.78;77365.22;5093080;28;20556;-68
2023/05/01 04:12:45;;;;;;;8.17;7.13;;;;;;;-145.94;53.71;77361.16;5092851;28;20189;-68
2023/05/01 04:15:12;;;;;;;6.90;6.53;;;;;;;-145.94;53.74;77363.19;5094090;28;20267;-68
2023/05/01 04:17:42;;;;;;;8.03;7.33;;;;;;;-145.94;53.63;77350.94;5075646;28;20213;-69
2023/05/01 04:20:09;;;;;;;6.90;6.57;;;;;;;-145.94;53.88;77359.09;5075625;28;20186;-69
2023/05/01 04:22:36;;;;;;;7.73;7.20;;;;;;;-145.94;53.78;77350.94;5075859;28;20652;-68
2023/05/01 04:25:03;;;;;;;7.43;6.83;;;;;;;-145.94;53.53;77348.91;5075531;28;20185;-68
2023/05/01 04:27:30;;;;;;;7.37;5.57;;;;;;;-145.94;53.93;77355.03;5075798;28;20208;-68
2023/05/01 04:29:57;;;;;;;6.80;6.67;;;;;;;-145.94;54.10;77353.00;5075588;28;20197;-68
2023/05/01 04:32:24;;;;;;;7.03;6.67;;;;;;;-145.94;54.12;77363.19;5075528;28;20193;-68
2023/05/01 04:34:51;;;;;;;7.83;7.23;;;;;;;-145.94;54.22;77365.22;5093811;28;20190;-68
2023/05/01 04:37:17;;;;;;;8.17;7.53;;;;;;;-145.94;54.43;77357.06;5075451;28;20285;-68
2023/05/01 04:39:44;;;;;;;8.17;7.40;;;;;;;-145.94;54.41;77363.19;5075436;28;20209;-68
2023/05/01 04:42:10;;;;;;;7.63;7.07;;;;;;;-145.94;54.43;77363.19;5075416;28;20723;-68
2023/05/01 04:44:37;;;;;;;8.30;7.57;;;;;;;-145.94;54.09;77359.09;5075776;28;20660;-69
2023/05/01 04:47:05;;;;;;;7.33;6.80;;;;;;;-145.94;54.30;77365.22;5075385;28;20206;-68
2023/05/01 04:49:31;;;;;;;7.80;7.27;;;;;;;-145.94;54.52;77357.06;5092532;28;20281;-69
2023/05/01 04:51:58;;;;;;;8.47;7.93;;;;;;;-145.94;54.38;77355.03;5075126;28;20729;-69
2023/05/01 04:54:32;;;;;;;7.67;7.10;;;;;;;-145.94;54.30;77350.94;5075456;28;20575;-69
2023/05/01 04:56:58;;;;;;;8.20;7.50;;;;;;;-145.94;54.56;77355.03;5075143;28;20212;-68
2023/05/01 04:59:25;;;;;;;8.90;8.17;;;;;;;-145.94;54.63;77355.03;5075161;28;20289;-68
2023/05/01 05:01:53;;;;;;;6.70;6.40;;;;;;;-145.94;54.47;77357.06;5076013;28;20195;-68
2023/05/01 05:04:21;;;;;;;7.57;7.00;;;;;;;-145.94;54.58;77359.09;5075152;28;20190;-68
2023/05/01 05:06:48;;;;;;;8.47;7.63;;;;;;;-145.94;54.66;77361.16;5075040;28;20683;-68
2023/05/01 05:09:20;;;;;;;7.40;7.10;;;;;;;-145.94;54.59;77359.09;5075314;28;20202;-68
2023/05/01 05:11:46;;;;;;;8.63;7.87;;;;;;;-145.94;54.70;77355.03;5075077;28;20193;-68
2023/05/01 05:14:19;;;;;;;8.63;7.80;;;;;;;-145.94;54.46;77340.75;5075819;28;20205;-68
2023/05/01 05:16:46;;;;;;;8.40;7.90;;;;;;;-145.94;54.41;77353.00;5074957;28;20253;-68
2023/05/01 05:19:12;;;;;;;8.20;7.53;;;;;;;-145.94;54.41;77348.91;5093655;28;20732;-68
2023/05/01 05:21:41;;;;;;;12.20;6.67;;;;;;;-145.94;54.70;77350.94;5077543;28;20263;-68
2023/05/01 05:24:07;;;;;;;7.60;7.20;;;;;;;-145.94;54.45;77355.03;5078955;28;20243;-68
2023/05/01 05:26:34;;;;;;;6.97;6.73;;;;;;;-145.94;54.61;77338.72;5078627;28;20283;-68
2023/05/01 05:29:01;;;;;;;7.03;6.67;;;;;;;-145.94;54.78;77340.75;5078957;28;20193;-68
2023/05/01 05:31:28;;;;;;;8.17;7.67;;;;;;;-145.94;54.46;77322.41;5078830;28;20239;-68
2023/05/01 05:33:55;;;;;;;7.40;7.10;;;;;;;-145.94;54.39;77318.31;5078683;28;20208;-68
2023/05/01 05:36:23;;;;;;;10.83;7.20;;;;;;;-145.94;54.26;77314.25;5079211;28;20296;-68
2023/05/01 05:38:50;;;;;;;7.67;7.23;;;;;;;-145.94;54.65;77302.00;5095564;28;20284;-68
2023/05/01 05:41:17;;;;;;;7.93;7.43;;;;;;;-145.94;54.52;77291.81;5078972;28;20672;-69
2023/05/01 05:43:46;;;;;;;8.27;7.63;;;;;;;-145.94;54.54;77285.69;5078846;28;20194;-69
2023/05/01 05:46:12;;;;;;;9.40;8.00;;;;;;;-145.94;54.45;77273.44;5078459;28;20217;-68
2023/05/01 05:48:40;;;;;;;7.47;7.17;;;;;;;-145.94;54.39;77275.50;5078484;28;20609;-69
2023/05/01 05:51:06;;;;;;;8.63;8.07;;;;;;;-145.94;54.45;77263.25;5096803;28;20186;-69
2023/05/01 05:53:33;;;;;;;8.50;7.93;;;;;;;-145.94;54.39;77251.03;5096518;28;20201;-68
2023/05/01 05:55:59;;;;;;;7.53;7.13;;;;;;;-145.94;54.21;77251.03;5078200;28;20679;-67
2023/05/01 05:58:26;;;;;;;7.23;6.73;;;;;;;-145.94;54.01;77232.66;5078312;28;20251;-68
2023/05/01 06:00:54;;;;;;;8.37;7.73;;;;;;;-145.94;54.07;77228.59;5078286;28;20212;-68
2023/05/01 06:03:21;;;;;;;8.63;8.03;;;;;;;-145.94;54.13;77228.59;5079124;28;20193;-68
2023/05/01 06:05:50;;;;;;;8.47;7.80;;;;;;;-145.94;53.71;77220.44;5078021;28;20214;-68
2023/05/01 06:08:17;;;;;;;8.47;8.00;;;;;;;-145.94;53.63;77202.06;5078136;28;20190;-68
2023/05/01 06:10:43;;;;;;;9.23;8.43;;;;;;;-145.94;53.58;77202.06;5096245;28;20721;-68
2023/05/01 06:13:11;;;;;;;7.23;6.93;;;;;;;-145.94;53.34;77198.00;5096135;28;20182;-68
2023/05/01 06:15:44;;;;;;;8.20;7.80;;;;;;;-145.94;53.16;77187.78;5078326;28;20304;-68
2023/05/01 06:18:10;;;;;;;8.47;7.83;;;;;;;-145.94;53.46;77185.75;5094764;28;20281;-68
2023/05/01 06:20:37;;;;;;;7.47;7.07;;;;;;;-145.94;53.42;77165.38;5094749;28;20190;-68
2023/05/01 06:23:04;;;;;;;8.93;8.30;;;;;;;-145.94;53.44;77157.22;5078785;28;20243;-68
2023/05/01 06:25:39;;;;;;;8.87;8.37;;;;;;;-145.94;53.32;77144.97;5077756;28;20219;-68
2023/05/01 06:28:06;;;;;;;8.40;7.87;;;;;;;-145.94;52.86;77134.78;5095847;28;20198;-68
2023/05/01 06:30:33;;;;;;;10.03;8.23;;;;;;;-145.94;52.84;77126.63;5078555;28;20182;-68
2023/05/01 06:33:01;;;;;;;7.47;7.20;;;;;;;-145.94;53.21;77110.31;5076708;28;20190;-68
2023/05/01 06:35:27;;;;;;;8.13;7.40;;;;;;;-145.94;53.12;77104.19;5078272;28;20222;-68
2023/05/01 06:37:54;;;;;;;10.63;6.53;;;;;;;-145.94;53.66;77098.06;5095729;28;20171;-68
2023/05/01 06:40:21;;;;;;;8.13;7.53;;;;;;;-145.94;53.26;77077.69;5077486;28;20222;-68
2023/05/01 06:42:48;;;;;;;8.63;7.83;;;;;;;-145.94;53.39;77065.44;5077525;28;20193;-68
2023/05/01 06:45:14;;;;;;;8.07;7.63;;;;;;;-145.94;53.18;77045.03;5094177;28;20572;-68
2023/05/01 06:47:41;;;;;;;9.70;9.13;;;;;;;-145.94;53.32;77030.78;5095468;28;20190;-68
2023/05/01 06:50:08;;;;;;;9.00;8.43;;;;;;;-145.94;53.30;77016.50;5095423;28;20235;-68
2023/05/01 06:52:35;;;;;;;9.00;8.50;;;;;;;-145.94;52.40;77000.19;5077341;28;20724;-68
2023/05/01 06:55:02;;;;;;;8.80;8.40;;;;;;;-145.94;52.44;76985.91;5095296;28;20251;-69
2023/05/01 06:57:28;;;;;;;8.60;7.77;;;;;;;-145.94;52.04;76969.59;5095893;28;20217;-68
2023/05/01 06:59:55;;;;;;;10.97;9.93;;;;;;;-145.94;52.04;76949.19;5077191;28;20293;-68
2023/05/01 07:02:22;;;;;;;10.10;9.37;;;;;;;-145.94;51.77;76934.94;5095254;28;20528;-68
2023/05/01 07:04:48;;;;;;;9.40;8.37;;;;;;;-145.94;52.22;76916.56;5095414;28;20186;-68
2023/05/01 07:07:15;;;;;;;7.07;6.63;;;;;;;-145.94;51.99;76902.28;5095301;28;20688;-68
2023/05/01 07:09:41;;;;;;;9.90;7.87;;;;;;;-145.94;51.62;76890.06;5095691;28;20286;-69
2023/05/01 07:12:07;;;;;;;8.60;7.70;;;;;;;-145.94;51.18;76879.88;5095558;28;20273;-69
2023/05/01 07:14:34;;;;;;;8.53;7.73;;;;;;;-145.94;51.29;76867.63;5094862;28;20211;-69
2023/05/01 07:17:01;;;;;;;6.90;6.60;;;;;;;-145.94;51.64;76863.56;5094769;28;20277;-68
2023/05/01 07:19:28;;;;;;;8.30;7.57;;;;;;;-145.94;50.50;76832.97;5095137;28;20240;-68
2023/05/01 07:21:54;;;;;;;7.83;7.43;;;;;;;-145.94;51.18;76824.81;5094804;28;20213;-68
2023/05/01 07:24:21;;;;;;;7.57;7.23;;;;;;;-145.94;50.70;76812.56;5095033;28;20209;-68
2023/05/01 07:26:47;;;;;;;7.23;7.00;;;;;;;-145.94;50.66;76794.22;5076497;28;20629;-68
2023/05/01 07:29:15;;;;;;;8.93;6.57;;;;;;;-145.94;50.97;76782.00;5095219;28;20186;-68
2023/05/01 07:31:42;;;;;;;8.37;7.80;;;;;;;-145.94;50.59;76769.75;5094947;28;20203;-68
2023/05/01 07:34:09;;;;;;;7.33;6.90;;;;;;;-145.94;49.28;76753.44;5076343;28;20202;-70
2023/05/01 07:36:35;;;;;;;7.43;7.23;;;;;;;-145.94;49.04;76733.03;5094673;28;20572;-69
2023/05/01 07:39:02;;;;;;;7.73;7.27;;;;;;;-145.94;48.66;76716.72;5094551;28;20181;-69
2023/05/01 07:41:30;;;;;;;8.20;7.37;;;;;;;-145.94;48.30;76716.72;5094526;28;20210;-68
2023/05/01 07:43:59;;;;;;;6.93;6.63;;;;;;;-145.94;47.97;76690.22;5094325;28;20273;-70
2023/05/01 07:46:26;;;;;;;6.53;6.23;;;;;;;-145.94;47.18;76678.00;5094379;28;20210;-69
2023/05/01 07:48:52;;;;;;;7.17;6.77;;;;;;;-145.94;47.55;76667.78;5094303;28;20192;-69
2023/05/01 07:51:19;;;;;;;6.00;5.70;;;;;;;-145.94;47.16;76645.38;5094390;28;20277;-69
2023/05/01 07:53:46;;;;;;;5.30;5.20;;;;;;;-145.94;46.20;76641.28;5094194;28;20194;-69
2023/05/01 07:56:12;;;;;;;5.90;5.57;;;;;;;-145.94;46.42;76622.94;5094159;28;20284;-69
2023/05/01 07:58:41;;;;;;;5.67;5.47;;;;;;;-145.94;46.53;76614.78;5094493;28;20243;-69
2023/05/01 08:01:08;;;;;;;5.80;5.70;;;;;;;-145.94;45.96;76598.47;5094131;28;20235;-69
2023/05/01 08:03:34;;;;;;;6.97;6.50;;;;;;;-145.94;46.48;76582.16;5094370;28;20259;-69
2023/05/01 08:06:01;;;;;;;7.17;6.50;;;;;;;-145.94;45.24;76571.97;5094382;28;20212;-69
2023/05/01 08:08:27;;;;;;;5.20;5.00;;;;;;;-145.94;45.17;76557.69;5094286;28;20178;-69
2023/05/01 08:10:54;;;;;;;5.97;5.87;;;;;;;-145.94;45.05;76553.59;5094499;28;20675;-69
2023/05/01 08:13:20;;;;;;;5.90;5.70;;;;;;;-145.94;44.93;76543.41;5094495;28;20186;-70
2023/05/01 08:15:47;;;;;;;5.47;5.27;;;;;;;-145.94;44.80;76525.06;5093742;28;20248;-70
2023/05/01 08:18:19;;;;;;;6.10;5.80;;;;;;;-145.94;45.54;76508.75;5094470;28;20197;-70
2023/05/01 08:20:47;;;;;;;6.30;5.93;;;;;;;-145.94;45.54;76492.44;5094364;28;20185;-70
2023/05/01 08:23:16;;;;;;;5.40;5.10;;;;;;;-145.94;44.73;76480.19;5093756;28;20552;-70
2023/05/01 08:25:45;;;;;;;7.67;6.97;;;;;;;-145.94;44.25;76476.13;5093641;28;20721;-69
2023/05/01 08:28:13;;;;;;;6.47;6.17;;;;;;;-145.94;43.96;76463.88;5093477;28;20247;-69
2023/05/01 08:30:40;;;;;;;5.53;5.17;;;;;;;-145.94;43.79;76447.56;5093609;28;20594;-69
2023/05/01 08:33:06;;;;;;;8.23;7.67;;;;;;;-145.94;44.06;76433.31;5093581;28;20213;-69
2023/05/01 08:35:33;;;;;;;6.97;6.67;;;;;;;-145.94;43.72;76404.75;5093431;28;20217;-69
2023/05/01 08:38:00;;;;;;;6.53;6.07;;;;;;;-145.94;42.51;76402.72;5093399;28;20204;-69
2023/05/01 08:40:31;;;;;;;6.53;6.10;;;;;;;-145.94;42.14;76398.66;5093475;28;20218;-70
2023/05/01 08:43:00;;;;;;;6.03;5.60;;;;;;;-145.94;42.37;76392.53;5093750;28;20202;-70
2023/05/01 08:45:34;;;;;;;5.97;5.70;;;;;;;-145.94;42.72;76376.22;5093592;28;20244;-69
2023/05/01 08:48:04;;;;;;;5.43;5.23;;;;;;;-145.94;41.94;76361.94;5075314;28;20185;-70
2023/05/01 08:50:35;;;;;;;6.43;5.93;;;;;;;-145.94;43.43;76341.56;5093894;28;20174;-70
2023/05/01 08:53:03;;;;;;;6.00;5.77;;;;;;;-145.94;43.44;76321.16;5075432;28;20663;-69
2023/05/01 08:55:31;;;;;;;16.73;5.10;;;;;;;-145.94;42.95;76308.94;5092593;28;20305;-70
2023/05/01 08:57:58;;;;;;;5.10;4.80;;;;;;;-145.94;42.35;76302.81;5093814;28;20660;-70
2023/05/01 09:00:26;;;;;;;6.63;5.93;;;;;;;-145.94;42.12;76286.50;5093227;28;20686;-70
2023/05/01 09:02:54;;;;;;;5.30;4.97;;;;;;;-145.94;40.94;76272.22;5093284;28;20550;-70
2023/05/01 09:05:20;;;;;;;5.90;5.33;;;;;;;-145.94;41.43;76245.72;5093175;28;20178;-69
2023/05/01 09:07:47;;;;;;;8.07;5.40;;;;;;;-145.94;40.41;76247.75;5093163;28;20185;-70
2023/05/01 09:10:20;;;;;;;5.20;4.93;;;;;;;-145.94;40.61;76235.53;5093200;28;20555;-70
2023/05/01 09:12:53;;;;;;;4.87;4.87;;;;;;;-145.94;41.05;76223.28;5093469;28;20236;-70
2023/05/01 09:15:20;;;;;;;4.43;4.33;;;;;;;-145.94;41.23;76198.81;5093383;28;20190;-70
2023/05/01 09:17:46;;;;;;;4.37;4.17;;;;;;;-145.94;40.49;76172.31;5093131;28;20186;-70
2023/05/01 09:20:14;;;;;;;4.37;4.13;;;;;;;-145.94;39.71;76143.78;5093304;28;20212;-70
2023/05/01 09:22:40;;;;;;;4.50;4.07;;;;;;;-145.94;39.41;76119.31;5093138;28;20239;-70
2023/05/01 09:25:09;;;;;;;3.77;3.73;;;;;;;-145.94;38.74;76107.09;5092982;28;20707;-70
2023/05/01 09:27:36;;;;;;;4.27;4.17;;;;;;;-145.94;41.06;76088.72;5093204;28;20280;-71
2023/05/01 09:30:05;;;;;;;4.87;3.63;;;;;;;-145.94;39.96;76094.84;5092988;28;20190;-71
2023/05/01 09:32:32;;;;;;;5.20;3.67;;;;;;;-145.94;38.26;76100.97;5092977;28;20194;-71
2023/05/01 09:35:12;;;;;;;3.90;3.90;;;;;;;-145.94;38.68;76072.44;5093680;28;20205;-70
2023/05/01 09:37:39;;;;;;;3.50;3.47;;;;;;;-145.94;39.37;76033.69;5092947;28;20174;-70
2023/05/01 09:40:07;;;;;;;3.80;3.70;;;;;;;-145.94;37.87;76045.91;5092881;28;20672;-71
2023/05/01 09:42:47;;;;;;;4.97;4.40;;;;;;;-145.94;37.46;76062.22;5093147;28;20190;-70
2023/05/01 09:45:14;;;;;;;3.97;3.87;;;;;;;-145.94;38.32;76086.69;5093368;28;20205;-71
2023/05/01 09:47:42;;;;;;;3.70;3.50;;;;;;;-145.94;37.24;76082.63;5092842;28;20652;-70
2023/05/01 09:50:11;;;;;;;3.80;3.53;;;;;;;-145.94;37.63;76072.44;5092858;28;20189;-70
2023/05/01 09:52:37;;;;;;;3.60;3.60;;;;;;;-145.94;37.78;76072.44;5092799;28;20210;-71
2023/05/01 09:55:17;;;;;;;3.77;3.50;;;;;;;-145.94;38.78;76060.19;5093244;28;20276;-71
2023/05/01 09:57:46;;;;;;;3.23;3.23;;;;;;;-145.94;37.85;76037.75;5093000;28;20632;-70
2023/05/01 10:00:14;;;;;;;4.60;4.40;;;;;;;-145.94;37.98;76003.09;5093087;28;20223;-70
2023/05/01 10:02:43;;;;;;;4.03;3.90;;;;;;;-145.94;37.29;75974.56;5093499;28;20216;-70
2023/05/01 10:05:10;;;;;;;4.33;3.87;;;;;;;-145.94;37.09;75980.69;5093205;28;20185;-70
2023/05/01 10:07:38;;;;;;;3.87;3.60;;;;;;;-145.94;36.89;76011.25;5093701;28;20260;-70
2023/05/01 10:10:34;;;;;;;7.60;3.57;;;;;;;-145.94;37.59;76017.38;5096247;28;20243;-71
2023/05/01 10:13:14;;;;;;;3.43;3.43;;;;;;;-145.94;37.34;76027.56;5079145;28;20259;-71
2023/05/01 10:15:40;;;;;;;3.03;3.03;;;;;;;-145.94;38.77;76037.75;5096038;28;20284;-70
2023/05/01 10:18:10;;;;;;;3.27;3.17;;;;;;;-145.94;38.51;76039.81;5096376;28;20186;-70
2023/05/01 10:20:36;;;;;;;3.73;3.63;;;;;;;-145.94;37.71;76041.84;5096087;28;20186;-70
2023/05/01 10:23:03;;;;;;;3.03;3.03;;;;;;;-145.94;38.19;76052.03;5096516;28;20269;-70
2023/05/01 10:25:30;;;;;;;2.87;2.77;;;;;;;-145.94;37.09;76037.75;5096107;28;20301;-70
2023/05/01 10:27:58;;;;;;;3.07;2.87;;;;;;;-145.94;37.37;76035.72;5095790;28;20281;-71
2023/05/01 10:30:28;;;;;;;2.60;2.60;;;;;;;-145.94;38.20;76047.97;5096415;28;20585;-71
2023/05/01 10:32:55;;;;;;;3.07;2.97;;;;;;;-145.94;38.29;76045.91;5096231;28;20185;-70
2023/05/01 10:35:26;;;;;;;3.73;3.63;;;;;;;-145.94;38.80;76070.38;5095590;28;20202;-71
2023/05/01 10:38:00;;;;;;;3.00;2.90;;;;;;;-145.94;37.08;76072.44;5096004;28;20253;-71
2023/05/01 10:40:39;;;;;;;10.50;2.93;;;;;;;-145.94;39.05;76060.19;5095713;28;20202;-70
2023/05/01 10:43:25;;;;;;;2.93;2.83;;;;;;;-145.94;38.59;76045.91;5095608;28;20235;-70
2023/05/01 10:45:53;;;;;;;3.77;3.77;;;;;;;-145.94;39.18;76035.72;5095564;28;20210;-70
2023/05/01 10:48:44;;;;;;;3.27;3.27;;;;;;;-145.94;38.27;76023.50;5095803;28;20189;-71
2023/05/01 10:51:16;;;;;;;3.03;3.03;;;;;;;-145.94;37.25;76013.28;5095873;28;20648;-70
2023/05/01 10:53:47;;;;;;;3.33;3.23;;;;;;;-145.94;37.30;76015.34;5096055;28;20521;-71
2023/05/01 10:56:31;;;;;;;3.77;3.60;;;;;;;-145.94;36.31;76011.25;5095265;28;20213;-70
2023/05/01 10:58:59;;;;;;;3.20;3.00;;;;;;;-145.94;36.24;76007.19;5095628;28;20512;-71
2023/05/01 11:01:39;;;;;;;2.83;2.77;;;;;;;-145.94;36.93;75999.03;5095194;28;20209;-71
2023/05/01 11:04:18;;;;;;;3.10;3.03;;;;;;;-145.94;36.89;75984.75;5095845;28;20173;-71
2023/05/01 11:06:57;;;;;;;3.17;3.07;;;;;;;-145.94;36.24;76015.34;5095300;28;20262;-70
2023/05/01 11:09:48;;;;;;;5.70;3.60;;;;;;;-145.94;37.70;76015.34;5094984;28;20586;-71
2023/05/01 11:12:35;;;;;;;3.13;3.13;;;;;;;-145.94;38.30;76013.28;5095232;28;20190;-70
2023/05/01 11:15:04;;;;;;;3.07;2.97;;;;;;;-145.94;37.13;75992.91;5094724;28;20210;-70
2023/05/01 11:17:39;;;;;;;4.10;4.00;;;;;;;-145.94;39.54;75970.47;5095511;28;20596;-71
2023/05/01 11:20:10;;;;;;;3.70;3.60;;;;;;;-145.94;38.51;75974.56;5094973;28;20587;-70
2023/05/01 11:22:39;;;;;;;3.50;3.50;;;;;;;-145.94;36.71;75964.38;5095121;28;20253;-70
2023/05/01 11:25:26;;;;;;;3.87;3.50;;;;;;;-145.94;38.06;75927.66;5094695;28;20220;-69
2023/05/01 11:27:55;;;;;;;3.43;3.43;;;;;;;-145.94;36.30;75899.13;5094753;28;20217;-71